Historique des stations

Station météo de Digny

Altitude de la station : 230 m







Données météorologiques pour le 03/03/2021
Date
Heure
Températures Humidité Point de rosée Vitesse
du vent
Direction Rafales Windchill Pression Pluviométrie
Cumul
Date
Heure
Températures Humidité Point de rosée Vitesse
du vent
Direction Rafales Windchill Pression Pluviométrie
Cumul
03/03/2021 22:449.2 °C95 %8.3 °C2 km/hS21 km/h9.4 1024 hPa1.6 mm
03/03/2021 22:299.2 °C94 %8.3 °C-SE21 km/h9.4 1024 hPa1.6 mm
03/03/2021 22:149.4 °C93 %8.3 °C3 km/hSE21 km/h8.9 1024 hPa1.6 mm
03/03/2021 21:599.8 °C92 %8.3 °C2 km/hSE21 km/h10.0 1024 hPa1.6 mm
03/03/2021 21:4410.1 °C92 %8.9 °C3 km/hS21 km/h9.4 1024 hPa1.4 mm
03/03/2021 21:2910.2 °C91 %8.9 °C3 km/hS21 km/h9.4 1024 hPa1.4 mm
03/03/2021 21:1410.7 °C88 %8.9 °C2 km/hSSO21 km/h10.6 1024 hPa1.4 mm
03/03/2021 20:5911.3 °C85 %8.9 °C2 km/hSSO21 km/h11.1 1024 hPa1.4 mm
03/03/2021 20:4411.7 °C81 %8.3 °C3 km/hOSO18 km/h11.7 1024 hPa0.2 mm
03/03/2021 20:2911.8 °C80 %8.3 °C5 km/hSO18 km/h11.7 1024 hPa0.2 mm
03/03/2021 20:1412.1 °C79 %8.3 °C8 km/hSO18 km/h11.7 1024 hPa0.2 mm
03/03/2021 20:0012.4 °C78 %8.9 °C-SO18 km/h12.2 1025 hPa0.2 mm
03/03/2021 19:4412.7 °C77 %8.9 °C3 km/hSO18 km/h12.8 1025 hPa0.2 mm
03/03/2021 19:2913.0 °C77 %8.9 °C6 km/hSO18 km/h12.8 1025 hPa0.2 mm
03/03/2021 19:1413.2 °C77 %9.4 °C5 km/hSSO18 km/h13.3 1025 hPa0.2 mm
03/03/2021 18:5913.2 °C77 %9.4 °C-SO18 km/h13.3 1025 hPa0.2 mm
03/03/2021 18:4413.4 °C77 %9.4 °C3 km/hSSO18 km/h13.3 1025 hPa0.2 mm
03/03/2021 18:2913.4 °C77 %9.4 °C6 km/hSO18 km/h13.3 1025 hPa0.2 mm
03/03/2021 18:1413.7 °C76 %9.4 °C2 km/hS18 km/h13.9 1025 hPa0.2 mm
03/03/2021 17:5914.1 °C74 %9.4 °C2 km/hS18 km/h13.9 1025 hPa0.2 mm
03/03/2021 17:4414.4 °C72 %9.4 °C6 km/hSSO18 km/h14.4 1024 hPa0.2 mm
03/03/2021 17:2914.4 °C73 %9.4 °C6 km/hSO18 km/h14.4 1025 hPa0.2 mm
03/03/2021 17:1414.6 °C72 %9.4 °C6 km/hSSO18 km/h14.4 1025 hPa0.2 mm
03/03/2021 17:0015.1 °C70 %9.4 °C11 km/hSSO18 km/h14.4 1025 hPa0.2 mm
03/03/2021 16:4514.9 °C70 %9.4 °C2 km/hSSO18 km/h15.0 1025 hPa0.2 mm
03/03/2021 16:3015.3 °C69 %9.4 °C3 km/hSSE18 km/h15.6 1025 hPa0.2 mm
03/03/2021 16:1515.5 °C70 %10.0 °C2 km/hSSO18 km/h15.6 1025 hPa0.2 mm
03/03/2021 16:0015.3 °C71 %10.0 °C8 km/hS18 km/h15.6 1025 hPa0.2 mm
03/03/2021 15:4515.3 °C70 %10.0 °C6 km/hSSO18 km/h15.6 1025 hPa0.2 mm
03/03/2021 15:3015.1 °C72 %10.0 °C8 km/hS18 km/h15.0 1025 hPa0.2 mm
03/03/2021 15:1514.8 °C72 %10.0 °C10 km/hSSO18 km/h14.4 1026 hPa0.2 mm
03/03/2021 15:0015.4 °C71 %10.0 °C3 km/hSSO18 km/h15.6 1026 hPa0.2 mm
03/03/2021 14:4515.6 °C71 %10.6 °C6 km/hSSO18 km/h15.6 1026 hPa0.2 mm
03/03/2021 14:3015.3 °C72 %10.6 °C6 km/hSE18 km/h15.6 1026 hPa0.2 mm
03/03/2021 14:1515.0 °C74 %10.6 °C3 km/hS18 km/h15.0 1026 hPa0.2 mm
03/03/2021 14:0014.9 °C74 %10.6 °C5 km/hSSO18 km/h15.0 1026 hPa0.2 mm
03/03/2021 13:4514.7 °C74 %10.0 °C10 km/hSSO18 km/h14.4 1027 hPa0.2 mm
03/03/2021 13:3014.7 °C75 %10.6 °C8 km/hS18 km/h14.4 1027 hPa0.2 mm
03/03/2021 13:1515.1 °C74 %10.6 °C8 km/hSSE16 km/h15.0 1026 hPa0.2 mm
03/03/2021 13:0014.5 °C74 %10.0 °C10 km/hSO16 km/h13.9 1027 hPa0.2 mm
03/03/2021 12:4514.1 °C77 %10.0 °C6 km/hSSE16 km/h13.9 1027 hPa0.2 mm
03/03/2021 12:2913.5 °C77 %9.4 °C13 km/hS16 km/h11.7 1027 hPa0.2 mm
03/03/2021 12:1413.0 °C78 %9.4 °C3 km/hSSE14 km/h12.8 1027 hPa0.2 mm
03/03/2021 11:5912.5 °C80 %8.9 °C6 km/hS13 km/h12.8 1027 hPa0.2 mm
03/03/2021 11:4411.3 °C80 %7.8 °C8 km/hS11 km/h10.0 1027 hPa0.2 mm
03/03/2021 11:2811.1 °C80 %7.8 °C5 km/hS11 km/h11.1 1027 hPa0.2 mm
03/03/2021 11:1410.5 °C84 %7.8 °C3 km/hS11 km/h10.6 1027 hPa0.2 mm
03/03/2021 10:599.2 °C91 %7.8 °C6 km/hESE11 km/h8.3 1027 hPa0.2 mm
03/03/2021 10:448.4 °C92 %7.2 °C2 km/hESE11 km/h8.3 1027 hPa0.2 mm
03/03/2021 10:297.9 °C92 %6.7 °C3 km/hESE11 km/h7.2 1028 hPa0.2 mm
03/03/2021 10:147.7 °C92 %6.7 °C6 km/hESE11 km/h6.7 1027 hPa0.2 mm
03/03/2021 09:597.4 °C91 %6.1 °C6 km/hESE11 km/h6.1 1027 hPa0.2 mm
03/03/2021 09:447.3 °C91 %6.1 °C6 km/hSE10 km/h6.1 1028 hPa-
03/03/2021 09:297.1 °C91 %5.6 °C8 km/hESE8 km/h5.6 1027 hPa-
03/03/2021 09:146.9 °C90 %5.6 °C2 km/hESE8 km/h7.2 1027 hPa-
03/03/2021 08:596.9 °C89 %5.0 °C2 km/hESE8 km/h6.7 1027 hPa-
03/03/2021 08:446.6 °C88 %5.0 °C2 km/hESE8 km/h6.7 1027 hPa-
03/03/2021 08:306.0 °C89 %4.4 °C2 km/hSE8 km/h6.1 1027 hPa-
03/03/2021 08:155.3 °C90 %3.9 °C6 km/hSE8 km/h4.4 1027 hPa-
03/03/2021 08:004.9 °C90 %3.3 °C-SE8 km/h5.0 1027 hPa-
03/03/2021 07:454.7 °C90 %3.3 °C2 km/hSE8 km/h5.0 1027 hPa-
03/03/2021 07:304.7 °C89 %3.3 °C-SE8 km/h5.0 1027 hPa-
03/03/2021 07:154.9 °C88 %3.3 °C2 km/hSE8 km/h5.0 1027 hPa-
03/03/2021 07:005.3 °C87 %3.3 °C2 km/hSE8 km/h5.6 1027 hPa-
03/03/2021 06:455.6 °C86 %3.3 °C3 km/hSE8 km/h5.0 1027 hPa-
03/03/2021 06:305.8 °C85 %3.3 °C-ESE8 km/h6.1 1027 hPa-
03/03/2021 06:156.1 °C85 %3.9 °C2 km/hESE8 km/h6.1 1027 hPa-
03/03/2021 06:006.4 °C84 %3.9 °C-S8 km/h6.7 1027 hPa-
03/03/2021 05:456.8 °C83 %3.9 °C-S8 km/h6.7 1027 hPa-
03/03/2021 05:306.6 °C83 %3.9 °C-S8 km/h6.7 1027 hPa-
03/03/2021 05:156.7 °C83 %3.9 °C-S8 km/h6.7 1027 hPa-
03/03/2021 05:006.8 °C82 %3.9 °C-S8 km/h6.7 1027 hPa-
03/03/2021 04:456.8 °C81 %3.9 °C-S8 km/h6.7 1027 hPa-
03/03/2021 04:306.9 °C81 %3.9 °C-S8 km/h7.2 1027 hPa-
03/03/2021 04:146.7 °C82 %3.9 °C-S8 km/h6.7 1027 hPa-
03/03/2021 03:596.9 °C81 %3.9 °C-S8 km/h6.7 1027 hPa-
03/03/2021 03:447.2 °C80 %3.9 °C-S8 km/h7.2 1027 hPa-
03/03/2021 03:297.1 °C80 %3.9 °C-S8 km/h7.2 1027 hPa-
03/03/2021 03:147.5 °C78 %3.9 °C-S8 km/h7.8 1027 hPa-
03/03/2021 02:597.8 °C78 %4.4 °C-S8 km/h7.8 1027 hPa-
03/03/2021 02:447.9 °C77 %3.9 °C-S8 km/h7.8 1027 hPa-
03/03/2021 02:297.9 °C77 %3.9 °C-S8 km/h7.8 1027 hPa-
03/03/2021 02:148.0 °C77 %4.4 °C-S8 km/h7.8 1027 hPa-
03/03/2021 01:598.0 °C77 %4.4 °C-S8 km/h7.8 1027 hPa-
03/03/2021 01:447.7 °C80 %4.4 °C-S8 km/h7.8 1027 hPa-
03/03/2021 01:297.2 °C82 %4.4 °C2 km/hS8 km/h7.2 1027 hPa-
03/03/2021 01:147.9 °C82 %5.0 °C3 km/hS8 km/h7.2 1027 hPa-
03/03/2021 00:598.9 °C75 %5.0 °C2 km/hS8 km/h8.9 1027 hPa-
03/03/2021 00:449.6 °C70 %4.4 °C-S8 km/h9.4 1027 hPa-
03/03/2021 00:3011.1 °C65 %4.4 °C2 km/hS8 km/h11.1 1027 hPa-
03/03/2021 00:1411.5 °C64 %5.0 °C2 km/hS8 km/h11.7 1027 hPa-


Minima :

Température : 4.7 °C
Humidité : 64 %
Point de rosée : 3.3 °C
Vent moyen : 2 km/h
Windchill : 4.4
Pression atm. : 1024 hPa
Maxima :

Température : 15.6 °C
Humidité : 95 %
Point de rosée : 10.6 °C
Vent moyen : 13 km/h
Windchill : 15.6
Pression atm. : 1028 hPa
Rafales max : 21 km/h
Cumul de pluie sur 24H : 1.6 mm

Digny est une commune du département Eure-et-Loir (28).
La station météorologique du réseau de l'association la plus proche de Digny est celle de Le Mesnil-Thomas



Icône Facebook Association Météo Centre Icône Twitter Association Météo Centre Icône Chaîne Youtube Association Météo Centre Icône contact Association Météo Centre Icône Insta Association Météo Centre